createdAt,value
2023-04-02T00:01:07.294Z,6.18
2023-04-02T00:03:44.642Z,6.14
2023-04-02T00:06:45.169Z,6.15
2023-04-02T00:09:14.497Z,6.15
2023-04-02T00:11:49.915Z,5.93
2023-04-02T00:14:36.127Z,6.12
2023-04-02T00:17:07.655Z,6.21
2023-04-02T00:20:04.812Z,6.02
2023-04-02T00:27:14.564Z,6.08
2023-04-02T00:32:35.882Z,6.37
2023-04-02T00:35:05.677Z,6.25
2023-04-02T00:37:40.617Z,6.24
2023-04-02T00:40:31.887Z,6.21
2023-04-02T00:43:04.732Z,6.26
2023-04-02T00:45:37.639Z,6.42
2023-04-02T00:48:31.116Z,6.31
2023-04-02T00:51:52.576Z,6.28
2023-04-02T00:54:23.374Z,6.40
2023-04-02T00:56:59.255Z,6.24
2023-04-02T00:59:44.813Z,6.15
2023-04-02T02:30:56.656Z,6.71
2023-04-02T02:33:29.504Z,6.63
2023-04-02T02:36:06.423Z,6.80
2023-04-02T02:38:46.122Z,6.80
2023-04-02T02:41:36.187Z,6.81
2023-04-02T02:44:10.641Z,6.78
2023-04-02T02:46:57.377Z,6.65
2023-04-02T02:49:30.379Z,6.58
2023-04-02T02:52:09.618Z,6.73
2023-04-02T02:54:50.791Z,6.44
2023-04-02T02:57:28.231Z,6.54
2023-04-02T03:00:00.646Z,6.75
2023-04-02T03:02:32.029Z,6.50
2023-04-02T03:05:04.077Z,6.57
2023-04-02T03:07:33.034Z,6.57
2023-04-02T03:10:25.648Z,6.60
2023-04-02T03:13:09.692Z,6.71
2023-04-02T03:15:48.577Z,6.61
2023-04-02T03:18:43.282Z,6.70
2023-04-02T03:21:22.751Z,6.60
2023-04-02T03:23:56.603Z,6.53
2023-04-02T03:26:38.848Z,6.62
2023-04-02T03:29:27.761Z,6.66
2023-04-02T03:32:08.759Z,6.78
2023-04-02T03:35:04.891Z,6.74
2023-04-02T03:37:43.484Z,6.72
2023-04-02T03:40:20.812Z,6.60
2023-04-02T03:42:59.976Z,6.73
2023-04-02T03:48:30.149Z,6.67
2023-04-02T03:51:02.250Z,6.73
2023-04-02T03:53:32.408Z,6.60
2023-04-02T03:56:02.723Z,6.60
2023-04-02T03:58:55.309Z,6.75
2023-04-02T04:01:37.764Z,6.78
2023-04-02T04:04:15.517Z,6.82
2023-04-02T04:06:45.631Z,6.88
2023-04-02T04:09:40.203Z,6.89
2023-04-02T04:12:29.465Z,6.83
2023-04-02T04:15:33.297Z,6.94
2023-04-02T04:18:47.022Z,7.01
2023-04-02T04:21:30.293Z,6.88
2023-04-02T04:27:21.920Z,6.96
2023-04-02T04:30:25.763Z,6.99
2023-04-02T04:35:52.197Z,7.01
2023-04-02T04:41:26.997Z,7.03
2023-04-02T04:44:07.244Z,6.94
2023-04-02T04:46:45.076Z,7.03
2023-04-02T04:49:25.735Z,7.07
2023-04-02T04:52:08.080Z,6.97
2023-04-02T04:54:39.260Z,7.07
2023-04-02T04:57:31.274Z,6.95
2023-04-02T05:00:20.222Z,7.05
2023-04-02T05:02:50.959Z,7.12
2023-04-02T05:08:23.033Z,7.01
2023-04-02T05:10:56.369Z,7.08
2023-04-02T05:13:36.338Z,7.07
2023-04-02T05:16:28.168Z,7.12
2023-04-02T05:19:19.235Z,7.08
2023-04-02T05:21:55.823Z,6.98
2023-04-02T05:24:44.899Z,6.98
2023-04-02T05:27:29.511Z,6.84
2023-04-02T05:30:05.507Z,7.03
2023-04-02T05:32:37.402Z,7.07
2023-04-02T05:35:06.779Z,7.03
2023-04-02T05:37:39.997Z,6.96
2023-04-02T05:40:27.704Z,7.08
2023-04-02T05:42:57.352Z,7.03
2023-04-02T05:45:41.384Z,6.98
2023-04-02T05:48:37.113Z,6.95
2023-04-02T05:51:08.416Z,7.01
2023-04-02T05:53:50.155Z,7.00
2023-04-02T05:56:33.393Z,6.89
2023-04-02T05:59:23.905Z,7.08
2023-04-02T06:02:00.669Z,7.01
2023-04-02T06:04:54.880Z,7.03
2023-04-02T06:08:02.463Z,7.13
2023-04-02T06:10:42.126Z,7.01
2023-04-02T06:13:16.474Z,7.01
2023-04-02T06:15:47.185Z,7.07
2023-04-02T06:18:25.072Z,7.22
2023-04-02T06:20:53.718Z,7.27
2023-04-02T06:23:39.040Z,7.34
2023-04-02T06:26:19.491Z,7.39
2023-04-02T06:29:18.848Z,7.45
2023-04-02T06:31:54.164Z,7.60
2023-04-02T06:34:28.105Z,7.53
2023-04-02T06:37:04.020Z,7.66
2023-04-02T06:39:33.471Z,7.74
2023-04-02T06:42:06.575Z,7.89
2023-04-02T06:44:57.194Z,7.92
2023-04-02T06:47:47.280Z,7.94
2023-04-02T06:50:28.009Z,8.03
2023-04-02T06:53:00.163Z,8.06
2023-04-02T06:55:33.363Z,7.84
2023-04-02T06:58:00.983Z,7.80
2023-04-02T07:00:38.981Z,7.85
2023-04-02T07:03:21.795Z,7.66
2023-04-02T07:05:49.361Z,7.57
2023-04-02T07:08:16.754Z,7.62
2023-04-02T07:10:44.123Z,7.63
2023-04-02T07:13:24.970Z,7.65
2023-04-02T07:15:55.181Z,7.71
2023-04-02T07:18:33.925Z,7.73
2023-04-02T07:21:04.530Z,7.65
2023-04-02T07:23:31.568Z,7.79
2023-04-02T07:25:59.608Z,7.78
2023-04-02T07:28:26.559Z,7.83
2023-04-02T07:30:54.829Z,7.87
2023-04-02T07:33:25.662Z,7.78
2023-04-02T07:35:55.095Z,7.68
2023-04-02T07:38:22.205Z,7.90
2023-04-02T07:40:49.811Z,8.04
2023-04-02T07:43:16.798Z,8.07
2023-04-02T07:45:43.933Z,8.03
2023-04-02T07:48:13.090Z,8.01
2023-04-02T07:50:40.314Z,8.04
2023-04-02T07:53:08.955Z,8.06
2023-04-02T07:55:36.382Z,8.08
2023-04-02T07:58:04.274Z,8.15
2023-04-02T08:00:31.367Z,7.88
2023-04-02T08:02:58.633Z,7.88
2023-04-02T08:05:26.522Z,7.84
2023-04-02T08:07:55.654Z,7.83
2023-04-02T08:10:23.323Z,7.81
2023-04-02T08:12:50.665Z,7.83
2023-04-02T08:15:18.427Z,7.79
2023-04-02T08:17:46.486Z,7.90
2023-04-02T08:20:22.456Z,7.88
2023-04-02T08:22:50.725Z,7.78
2023-04-02T08:25:18.330Z,7.94
2023-04-02T08:27:48.313Z,7.96
2023-04-02T08:30:17.644Z,8.07
2023-04-02T08:32:44.712Z,7.92
2023-04-02T08:35:14.876Z,7.90
2023-04-02T08:37:43.057Z,7.94
2023-04-02T08:40:31.204Z,7.89
2023-04-02T08:43:01.133Z,7.91
2023-04-02T08:45:46.468Z,7.95
2023-04-02T08:48:15.851Z,7.95
2023-04-02T08:50:45.480Z,7.95
2023-04-02T08:53:28.128Z,8.04
2023-04-02T08:56:06.157Z,7.92
2023-04-02T08:58:47.096Z,8.09
2023-04-02T09:01:16.895Z,8.05
2023-04-02T09:03:47.632Z,8.10
2023-04-02T09:06:18.890Z,8.11
2023-04-02T09:08:49.016Z,8.15
2023-04-02T09:11:27.875Z,8.15
2023-04-02T09:13:57.727Z,8.10
2023-04-02T09:16:56.244Z,8.27
2023-04-02T09:19:26.709Z,8.25
2023-04-02T09:22:06.493Z,8.23
2023-04-02T09:24:34.357Z,8.28
2023-04-02T09:27:01.959Z,8.31
2023-04-02T09:29:40.083Z,8.44
2023-04-02T09:32:12.962Z,8.41
2023-04-02T09:34:39.988Z,8.43
2023-04-02T09:37:15.544Z,8.38
2023-04-02T09:39:43.205Z,8.45
2023-04-02T09:42:34.401Z,8.45
2023-04-02T09:45:19.560Z,8.49
2023-04-02T09:47:47.054Z,8.58
2023-04-02T09:50:34.196Z,8.65
2023-04-02T09:53:31.671Z,8.61
2023-04-02T09:56:17.239Z,8.54
2023-04-02T09:58:46.166Z,8.59
2023-04-02T10:01:28.436Z,8.71
2023-04-02T10:03:56.653Z,8.75
2023-04-02T10:06:23.995Z,8.77
2023-04-02T10:08:51.815Z,8.66
2023-04-02T10:11:43.670Z,8.83
2023-04-02T10:14:30.572Z,8.81
2023-04-02T10:17:02.301Z,8.99
2023-04-02T10:19:34.719Z,9.11
2023-04-02T10:22:13.539Z,9.24
2023-04-02T10:24:40.838Z,9.29
2023-04-02T10:27:17.919Z,9.43
2023-04-02T10:29:45.088Z,9.53
2023-04-02T10:32:16.353Z,9.60
2023-04-02T10:34:46.214Z,9.72
2023-04-02T10:37:45.825Z,9.86
2023-04-02T10:40:27.127Z,10.10
2023-04-02T10:43:00.261Z,10.10
2023-04-02T10:45:30.753Z,9.96
2023-04-02T10:48:27.037Z,10.17
2023-04-02T10:51:27.684Z,10.18
2023-04-02T10:54:06.610Z,10.13
2023-04-02T10:56:44.065Z,9.82
2023-04-02T10:59:47.806Z,9.93
2023-04-02T11:02:29.864Z,9.98
2023-04-02T11:05:02.106Z,10.11
2023-04-02T11:07:32.517Z,10.50
2023-04-02T11:10:01.037Z,10.50
2023-04-02T11:12:50.789Z,10.58
2023-04-02T11:15:20.343Z,10.51
2023-04-02T11:17:48.493Z,10.62
2023-04-02T11:20:44.150Z,10.51
2023-04-02T11:23:14.092Z,10.40
2023-04-02T11:25:43.286Z,10.12
2023-04-02T11:28:32.028Z,10.19
2023-04-02T11:30:59.420Z,10.10
2023-04-02T11:33:38.250Z,10.16
2023-04-02T11:36:44.733Z,9.99
2023-04-02T11:39:17.289Z,10.01
2023-04-02T11:42:03.034Z,9.99
2023-04-02T11:44:30.219Z,9.85
2023-04-02T11:47:17.571Z,9.93
2023-04-02T11:50:05.335Z,10.04
2023-04-02T11:52:36.970Z,10.00
2023-04-02T11:55:20.573Z,9.90
2023-04-02T11:57:59.382Z,10.04
2023-04-02T12:00:48.605Z,10.28
2023-04-02T12:03:30.567Z,10.29
2023-04-02T12:06:47.305Z,10.14
2023-04-02T12:09:27.468Z,10.24
2023-04-02T12:11:58.423Z,10.31
2023-04-02T12:14:43.563Z,10.32
2023-04-02T12:17:38.560Z,10.38
2023-04-02T12:20:09.896Z,10.47
2023-04-02T12:22:47.818Z,10.52
2023-04-02T12:25:20.952Z,10.46
2023-04-02T12:27:48.579Z,10.33
2023-04-02T12:30:21.687Z,10.36
2023-04-02T12:32:49.758Z,10.49
2023-04-02T12:35:36.657Z,10.50
2023-04-02T12:38:03.715Z,10.64
2023-04-02T12:40:30.915Z,10.80
2023-04-02T12:42:57.920Z,11.13
2023-04-02T12:45:29.574Z,11.27
2023-04-02T12:47:58.974Z,11.42
2023-04-02T12:50:26.389Z,11.21
2023-04-02T12:52:55.878Z,11.38
2023-04-02T12:55:25.736Z,11.38
2023-04-02T12:58:00.105Z,11.61
2023-04-02T13:00:30.024Z,11.51
2023-04-02T13:03:21.637Z,11.54
2023-04-02T13:05:54.568Z,11.46
2023-04-02T13:08:41.270Z,11.53
2023-04-02T13:11:08.544Z,11.46
2023-04-02T13:14:02.737Z,11.46
2023-04-02T13:16:35.896Z,11.17
2023-04-02T13:19:23.773Z,11.24
2023-04-02T13:21:52.026Z,11.26
2023-04-02T13:24:21.867Z,11.11
2023-04-02T13:26:49.932Z,11.05
2023-04-02T13:29:24.421Z,10.91
2023-04-02T13:31:54.318Z,10.88
2023-04-02T13:34:21.812Z,10.80
2023-04-02T13:36:49.084Z,10.75
2023-04-02T13:39:16.549Z,10.92
2023-04-02T13:41:51.406Z,10.95
2023-04-02T13:44:25.093Z,10.87
2023-04-02T13:46:53.520Z,11.01
2023-04-02T13:49:21.648Z,11.06
2023-04-02T13:51:54.229Z,10.97
2023-04-02T13:54:29.736Z,11.12
2023-04-02T13:56:57.452Z,11.10
2023-04-02T13:59:26.184Z,11.09
2023-04-02T14:02:07.314Z,11.04
2023-04-02T14:04:43.752Z,11.04
2023-04-02T14:07:42.560Z,11.02
2023-04-02T14:10:18.385Z,10.98
2023-04-02T14:13:17.601Z,11.08
2023-04-02T14:15:54.762Z,11.07
2023-04-02T14:18:42.694Z,11.02
2023-04-02T14:21:21.432Z,11.15
2023-04-02T14:24:09.895Z,11.14
2023-04-02T14:27:04.986Z,11.12
2023-04-02T14:29:41.551Z,11.06
2023-04-02T14:32:15.664Z,11.04
2023-04-02T14:34:45.362Z,11.00
2023-04-02T14:37:27.719Z,11.00
2023-04-02T14:40:33.120Z,11.05
2023-04-02T14:43:03.222Z,11.07
2023-04-02T14:45:51.843Z,11.00
2023-04-02T14:48:38.201Z,11.01
2023-04-02T14:51:14.805Z,10.96
2023-04-02T14:54:06.206Z,11.00
2023-04-02T14:56:39.864Z,11.00
2023-04-02T14:59:28.396Z,10.97
2023-04-02T15:02:14.298Z,10.91
2023-04-02T15:04:46.420Z,10.97
2023-04-02T15:07:25.851Z,10.98
2023-04-02T15:10:07.120Z,10.86
2023-04-02T15:12:37.298Z,10.92
2023-04-02T15:15:40.411Z,10.89
2023-04-02T15:18:17.506Z,10.82
2023-04-02T15:21:17.042Z,10.77
2023-04-02T15:24:16.956Z,10.80
2023-04-02T15:27:24.458Z,10.78
2023-04-02T15:30:07.684Z,10.79
2023-04-02T15:32:35.477Z,10.81
2023-04-02T15:35:09.429Z,10.83
2023-04-02T15:38:15.718Z,10.82
2023-04-02T15:40:57.523Z,10.82
2023-04-02T15:43:30.588Z,10.80
2023-04-02T15:46:16.904Z,10.69
2023-04-02T15:49:13.114Z,10.73
2023-04-02T15:52:12.383Z,10.70
2023-04-02T15:54:42.426Z,10.68
2023-04-02T15:57:58.799Z,10.61
2023-04-02T16:01:13.865Z,10.58
2023-04-02T16:03:41.673Z,10.58
2023-04-02T16:06:31.318Z,10.52
2023-04-02T16:09:21.916Z,10.63
2023-04-02T16:12:12.457Z,10.55
2023-04-02T16:14:41.525Z,10.48
2023-04-02T16:17:26.508Z,10.59
2023-04-02T16:20:03.691Z,10.49
2023-04-02T16:22:34.269Z,10.52
2023-04-02T16:25:13.453Z,10.45
2023-04-02T16:27:45.755Z,10.60
2023-04-02T16:30:19.035Z,10.55
2023-04-02T16:33:07.893Z,10.53
2023-04-02T16:35:50.115Z,10.50
2023-04-02T16:38:45.090Z,10.45
2023-04-02T16:41:15.038Z,10.39
2023-04-02T16:43:59.889Z,10.42
2023-04-02T16:47:04.355Z,10.42
2023-04-02T16:49:49.835Z,10.32
2023-04-02T16:52:50.994Z,10.29
2023-04-02T16:55:41.254Z,10.22
2023-04-02T16:58:11.663Z,10.21
2023-04-02T21:28:49.421Z,8.77
2023-04-02T21:42:36.066Z,8.87
2023-04-02T21:53:36.416Z,8.84
2023-04-02T22:31:49.168Z,8.66
2023-04-02T22:42:42.079Z,8.80
2023-04-02T22:48:02.809Z,8.76
2023-04-02T23:38:20.989Z,8.65
2023-04-02T23:49:15.617Z,8.57
